sensor_id;sensor_type;location;lat;lon;timestamp;P1;durP1;ratioP1;P2;durP2;ratioP2
16775;SDS011;8505;49.456;8.164;2023-07-16T00:01:18;2.30;;;1.50;;
16775;SDS011;8505;49.456;8.164;2023-07-16T00:03:46;2.15;;;1.27;;
16775;SDS011;8505;49.456;8.164;2023-07-16T00:06:15;3.33;;;1.30;;
16775;SDS011;8505;49.456;8.164;2023-07-16T00:08:43;1.90;;;1.30;;
16775;SDS011;8505;49.456;8.164;2023-07-16T00:11:11;3.45;;;1.60;;
16775;SDS011;8505;49.456;8.164;2023-07-16T00:13:39;3.20;;;1.30;;
16775;SDS011;8505;49.456;8.164;2023-07-16T00:16:12;3.13;;;1.65;;
16775;SDS011;8505;49.456;8.164;2023-07-16T00:18:41;2.75;;;1.40;;
16775;SDS011;8505;49.456;8.164;2023-07-16T00:21:08;2.67;;;1.40;;
16775;SDS011;8505;49.456;8.164;2023-07-16T00:23:37;2.83;;;1.42;;
16775;SDS011;8505;49.456;8.164;2023-07-16T00:26:05;3.05;;;1.50;;
16775;SDS011;8505;49.456;8.164;2023-07-16T00:28:33;4.57;;;1.57;;
16775;SDS011;8505;49.456;8.164;2023-07-16T00:31:01;3.50;;;1.40;;
16775;SDS011;8505;49.456;8.164;2023-07-16T00:33:29;5.22;;;1.73;;
16775;SDS011;8505;49.456;8.164;2023-07-16T00:35:57;3.30;;;1.50;;
16775;SDS011;8505;49.456;8.164;2023-07-16T00:38:24;3.63;;;1.60;;
16775;SDS011;8505;49.456;8.164;2023-07-16T00:40:54;4.15;;;1.58;;
16775;SDS011;8505;49.456;8.164;2023-07-16T00:43:21;3.23;;;1.60;;
16775;SDS011;8505;49.456;8.164;2023-07-16T00:45:49;3.05;;;1.70;;
16775;SDS011;8505;49.456;8.164;2023-07-16T00:48:17;3.70;;;1.70;;
16775;SDS011;8505;49.456;8.164;2023-07-16T00:50:45;3.65;;;1.70;;
16775;SDS011;8505;49.456;8.164;2023-07-16T00:53:22;3.97;;;1.60;;
16775;SDS011;8505;49.456;8.164;2023-07-16T00:55:51;3.70;;;1.55;;
16775;SDS011;8505;49.456;8.164;2023-07-16T00:58:20;3.13;;;1.67;;
16775;SDS011;8505;49.456;8.164;2023-07-16T01:00:48;3.30;;;1.60;;
16775;SDS011;8505;49.456;8.164;2023-07-16T01:03:15;2.92;;;1.58;;
16775;SDS011;8505;49.456;8.164;2023-07-16T01:05:45;2.72;;;1.65;;
16775;SDS011;8505;49.456;8.164;2023-07-16T01:08:20;2.10;;;1.60;;
16775;SDS011;8505;49.456;8.164;2023-07-16T01:10:54;3.80;;;1.80;;
16775;SDS011;8505;49.456;8.164;2023-07-16T01:13:24;3.97;;;1.60;;
16775;SDS011;8505;49.456;8.164;2023-07-16T01:15:52;3.67;;;1.50;;
16775;SDS011;8505;49.456;8.164;2023-07-16T01:18:20;3.90;;;1.90;;
16775;SDS011;8505;49.456;8.164;2023-07-16T01:20:47;4.40;;;1.70;;
16775;SDS011;8505;49.456;8.164;2023-07-16T01:23:35;4.47;;;1.88;;
16775;SDS011;8505;49.456;8.164;2023-07-16T01:26:19;3.70;;;1.75;;
16775;SDS011;8505;49.456;8.164;2023-07-16T01:32:00;4.30;;;1.80;;
16775;SDS011;8505;49.456;8.164;2023-07-16T01:34:32;4.68;;;1.90;;
16775;SDS011;8505;49.456;8.164;2023-07-16T01:37:02;4.85;;;1.60;;
16775;SDS011;8505;49.456;8.164;2023-07-16T01:39:31;3.90;;;1.80;;
16775;SDS011;8505;49.456;8.164;2023-07-16T01:42:00;6.47;;;1.90;;
16775;SDS011;8505;49.456;8.164;2023-07-16T01:44:28;4.97;;;1.70;;
16775;SDS011;8505;49.456;8.164;2023-07-16T01:47:03;4.78;;;1.67;;
16775;SDS011;8505;49.456;8.164;2023-07-16T01:49:33;4.82;;;2.00;;
16775;SDS011;8505;49.456;8.164;2023-07-16T01:52:01;4.30;;;1.85;;
16775;SDS011;8505;49.456;8.164;2023-07-16T01:54:30;4.03;;;1.90;;
16775;SDS011;8505;49.456;8.164;2023-07-16T01:56:58;3.90;;;1.90;;
16775;SDS011;8505;49.456;8.164;2023-07-16T01:59:25;4.43;;;1.83;;
16775;SDS011;8505;49.456;8.164;2023-07-16T02:01:53;4.65;;;1.77;;
16775;SDS011;8505;49.456;8.164;2023-07-16T02:04:23;6.00;;;2.00;;
16775;SDS011;8505;49.456;8.164;2023-07-16T02:06:50;5.38;;;1.70;;
16775;SDS011;8505;49.456;8.164;2023-07-16T02:09:18;4.23;;;2.00;;
16775;SDS011;8505;49.456;8.164;2023-07-16T02:11:46;5.53;;;1.93;;
16775;SDS011;8505;49.456;8.164;2023-07-16T02:14:16;6.37;;;2.13;;
16775;SDS011;8505;49.456;8.164;2023-07-16T02:16:44;6.07;;;1.95;;
16775;SDS011;8505;49.456;8.164;2023-07-16T02:19:12;6.05;;;2.15;;
16775;SDS011;8505;49.456;8.164;2023-07-16T02:21:41;5.55;;;2.05;;
16775;SDS011;8505;49.456;8.164;2023-07-16T02:24:09;5.43;;;2.00;;
16775;SDS011;8505;49.456;8.164;2023-07-16T02:26:36;6.85;;;1.90;;
16775;SDS011;8505;49.456;8.164;2023-07-16T02:29:04;6.25;;;1.80;;
16775;SDS011;8505;49.456;8.164;2023-07-16T02:31:34;7.07;;;1.88;;
16775;SDS011;8505;49.456;8.164;2023-07-16T02:34:03;6.15;;;1.80;;
16775;SDS011;8505;49.456;8.164;2023-07-16T02:36:31;7.60;;;1.98;;
16775;SDS011;8505;49.456;8.164;2023-07-16T02:39:02;6.13;;;2.22;;
16775;SDS011;8505;49.456;8.164;2023-07-16T02:41:30;6.72;;;2.15;;
16775;SDS011;8505;49.456;8.164;2023-07-16T02:44:01;5.25;;;1.90;;
16775;SDS011;8505;49.456;8.164;2023-07-16T02:46:31;8.00;;;2.23;;
16775;SDS011;8505;49.456;8.164;2023-07-16T02:48:59;4.55;;;1.80;;
16775;SDS011;8505;49.456;8.164;2023-07-16T02:51:26;5.57;;;1.88;;
16775;SDS011;8505;49.456;8.164;2023-07-16T02:53:54;4.47;;;1.93;;
16775;SDS011;8505;49.456;8.164;2023-07-16T02:56:23;7.60;;;2.20;;
16775;SDS011;8505;49.456;8.164;2023-07-16T02:58:51;6.22;;;1.92;;
16775;SDS011;8505;49.456;8.164;2023-07-16T03:01:19;5.83;;;1.83;;
16775;SDS011;8505;49.456;8.164;2023-07-16T03:03:47;6.50;;;1.90;;
16775;SDS011;8505;49.456;8.164;2023-07-16T03:06:14;5.20;;;1.80;;
16775;SDS011;8505;49.456;8.164;2023-07-16T03:08:47;5.53;;;1.90;;
16775;SDS011;8505;49.456;8.164;2023-07-16T03:11:15;6.38;;;2.00;;
16775;SDS011;8505;49.456;8.164;2023-07-16T03:13:44;5.72;;;1.80;;
16775;SDS011;8505;49.456;8.164;2023-07-16T03:16:11;6.40;;;2.10;;
16775;SDS011;8505;49.456;8.164;2023-07-16T03:18:40;6.55;;;2.10;;
16775;SDS011;8505;49.456;8.164;2023-07-16T03:21:08;5.97;;;2.00;;
16775;SDS011;8505;49.456;8.164;2023-07-16T03:23:35;5.33;;;1.90;;
16775;SDS011;8505;49.456;8.164;2023-07-16T03:26:03;4.70;;;1.90;;
16775;SDS011;8505;49.456;8.164;2023-07-16T03:28:31;6.13;;;1.70;;
16775;SDS011;8505;49.456;8.164;2023-07-16T03:31:00;7.97;;;2.03;;
16775;SDS011;8505;49.456;8.164;2023-07-16T03:33:28;5.28;;;1.90;;
16775;SDS011;8505;49.456;8.164;2023-07-16T03:35:56;6.57;;;2.03;;
16775;SDS011;8505;49.456;8.164;2023-07-16T03:38:24;5.57;;;1.90;;
16775;SDS011;8505;49.456;8.164;2023-07-16T03:40:52;5.60;;;2.13;;
16775;SDS011;8505;49.456;8.164;2023-07-16T03:43:19;7.93;;;2.20;;
16775;SDS011;8505;49.456;8.164;2023-07-16T03:45:47;7.88;;;2.10;;
16775;SDS011;8505;49.456;8.164;2023-07-16T03:48:17;6.45;;;2.00;;
16775;SDS011;8505;49.456;8.164;2023-07-16T03:50:46;6.73;;;2.10;;
16775;SDS011;8505;49.456;8.164;2023-07-16T03:53:14;6.50;;;1.90;;
16775;SDS011;8505;49.456;8.164;2023-07-16T03:55:41;7.07;;;2.00;;
16775;SDS011;8505;49.456;8.164;2023-07-16T03:58:09;8.63;;;2.00;;
16775;SDS011;8505;49.456;8.164;2023-07-16T04:00:37;4.72;;;2.05;;
16775;SDS011;8505;49.456;8.164;2023-07-16T04:03:05;8.03;;;1.87;;
16775;SDS011;8505;49.456;8.164;2023-07-16T04:05:34;6.85;;;1.85;;
16775;SDS011;8505;49.456;8.164;2023-07-16T04:08:02;7.82;;;2.00;;
16775;SDS011;8505;49.456;8.164;2023-07-16T04:10:30;7.35;;;2.00;;
16775;SDS011;8505;49.456;8.164;2023-07-16T04:12:57;7.85;;;2.33;;
16775;SDS011;8505;49.456;8.164;2023-07-16T04:15:25;8.73;;;1.90;;
16775;SDS011;8505;49.456;8.164;2023-07-16T04:17:53;6.00;;;1.92;;
16775;SDS011;8505;49.456;8.164;2023-07-16T04:20:21;6.13;;;2.05;;
16775;SDS011;8505;49.456;8.164;2023-07-16T04:22:50;6.00;;;1.90;;
16775;SDS011;8505;49.456;8.164;2023-07-16T04:25:18;6.75;;;1.90;;
16775;SDS011;8505;49.456;8.164;2023-07-16T04:27:46;6.93;;;2.13;;
16775;SDS011;8505;49.456;8.164;2023-07-16T04:30:14;7.70;;;2.30;;
16775;SDS011;8505;49.456;8.164;2023-07-16T04:32:42;6.32;;;2.10;;
16775;SDS011;8505;49.456;8.164;2023-07-16T04:35:10;4.45;;;1.63;;
16775;SDS011;8505;49.456;8.164;2023-07-16T04:37:37;8.13;;;2.10;;
16775;SDS011;8505;49.456;8.164;2023-07-16T04:40:07;7.75;;;1.98;;
16775;SDS011;8505;49.456;8.164;2023-07-16T04:42:35;4.95;;;1.80;;
16775;SDS011;8505;49.456;8.164;2023-07-16T04:45:04;7.07;;;2.08;;
16775;SDS011;8505;49.456;8.164;2023-07-16T04:47:32;6.32;;;1.90;;
16775;SDS011;8505;49.456;8.164;2023-07-16T04:50:01;6.78;;;1.90;;
16775;SDS011;8505;49.456;8.164;2023-07-16T04:52:29;6.23;;;2.07;;
16775;SDS011;8505;49.456;8.164;2023-07-16T04:54:57;7.15;;;2.10;;
16775;SDS011;8505;49.456;8.164;2023-07-16T04:57:26;6.80;;;2.00;;
16775;SDS011;8505;49.456;8.164;2023-07-16T04:59:53;7.13;;;2.22;;
16775;SDS011;8505;49.456;8.164;2023-07-16T05:02:21;6.45;;;1.77;;
16775;SDS011;8505;49.456;8.164;2023-07-16T05:04:49;6.95;;;2.10;;
16775;SDS011;8505;49.456;8.164;2023-07-16T05:07:16;6.03;;;1.90;;
16775;SDS011;8505;49.456;8.164;2023-07-16T05:09:44;7.90;;;1.95;;
16775;SDS011;8505;49.456;8.164;2023-07-16T05:12:12;6.43;;;2.17;;
16775;SDS011;8505;49.456;8.164;2023-07-16T05:14:44;7.00;;;2.00;;
16775;SDS011;8505;49.456;8.164;2023-07-16T05:17:13;8.68;;;2.30;;
16775;SDS011;8505;49.456;8.164;2023-07-16T05:19:42;7.03;;;1.77;;
16775;SDS011;8505;49.456;8.164;2023-07-16T05:22:10;8.50;;;2.10;;
16775;SDS011;8505;49.456;8.164;2023-07-16T05:24:38;6.43;;;2.20;;
16775;SDS011;8505;49.456;8.164;2023-07-16T05:27:05;7.47;;;1.92;;
16775;SDS011;8505;49.456;8.164;2023-07-16T05:29:33;5.75;;;2.20;;
16775;SDS011;8505;49.456;8.164;2023-07-16T05:32:02;6.00;;;2.00;;
16775;SDS011;8505;49.456;8.164;2023-07-16T05:34:31;8.65;;;2.20;;
16775;SDS011;8505;49.456;8.164;2023-07-16T05:36:59;7.57;;;2.05;;
16775;SDS011;8505;49.456;8.164;2023-07-16T05:39:27;8.02;;;2.13;;
16775;SDS011;8505;49.456;8.164;2023-07-16T05:41:55;7.35;;;2.03;;
16775;SDS011;8505;49.456;8.164;2023-07-16T05:44:22;8.00;;;2.42;;
16775;SDS011;8505;49.456;8.164;2023-07-16T05:46:50;5.53;;;2.28;;
16775;SDS011;8505;49.456;8.164;2023-07-16T05:49:19;6.75;;;2.28;;
16775;SDS011;8505;49.456;8.164;2023-07-16T05:51:47;7.05;;;2.22;;
16775;SDS011;8505;49.456;8.164;2023-07-16T05:54:15;7.88;;;2.10;;
16775;SDS011;8505;49.456;8.164;2023-07-16T05:56:42;7.90;;;2.35;;
16775;SDS011;8505;49.456;8.164;2023-07-16T05:59:10;5.53;;;2.30;;
16775;SDS011;8505;49.456;8.164;2023-07-16T06:01:38;8.10;;;2.22;;
16775;SDS011;8505;49.456;8.164;2023-07-16T06:04:05;6.73;;;2.30;;
16775;SDS011;8505;49.456;8.164;2023-07-16T06:06:35;6.80;;;2.30;;
16775;SDS011;8505;49.456;8.164;2023-07-16T06:09:05;5.78;;;2.20;;
16775;SDS011;8505;49.456;8.164;2023-07-16T06:11:33;9.30;;;2.17;;
16775;SDS011;8505;49.456;8.164;2023-07-16T06:14:01;5.57;;;2.20;;
16775;SDS011;8505;49.456;8.164;2023-07-16T06:16:29;5.10;;;2.10;;
16775;SDS011;8505;49.456;8.164;2023-07-16T06:18:57;7.63;;;2.42;;
16775;SDS011;8505;49.456;8.164;2023-07-16T06:21:25;7.10;;;2.30;;
16775;SDS011;8505;49.456;8.164;2023-07-16T06:23:54;7.10;;;2.33;;
16775;SDS011;8505;49.456;8.164;2023-07-16T06:26:22;7.28;;;2.42;;
16775;SDS011;8505;49.456;8.164;2023-07-16T06:28:49;6.57;;;2.33;;
16775;SDS011;8505;49.456;8.164;2023-07-16T06:31:17;7.88;;;2.50;;
16775;SDS011;8505;49.456;8.164;2023-07-16T06:33:45;7.57;;;2.42;;
16775;SDS011;8505;49.456;8.164;2023-07-16T06:36:13;6.57;;;2.58;;
16775;SDS011;8505;49.456;8.164;2023-07-16T06:38:41;6.30;;;2.30;;
16775;SDS011;8505;49.456;8.164;2023-07-16T06:41:10;6.20;;;2.42;;
16775;SDS011;8505;49.456;8.164;2023-07-16T06:43:38;6.82;;;2.20;;
16775;SDS011;8505;49.456;8.164;2023-07-16T06:46:06;8.63;;;2.40;;
16775;SDS011;8505;49.456;8.164;2023-07-16T06:48:34;9.20;;;2.90;;
16775;SDS011;8505;49.456;8.164;2023-07-16T06:51:01;8.87;;;2.60;;
16775;SDS011;8505;49.456;8.164;2023-07-16T06:53:29;8.77;;;2.60;;
16775;SDS011;8505;49.456;8.164;2023-07-16T06:55:57;9.07;;;2.60;;
16775;SDS011;8505;49.456;8.164;2023-07-16T06:58:32;8.98;;;2.78;;
16775;SDS011;8505;49.456;8.164;2023-07-16T07:01:00;6.57;;;2.60;;
16775;SDS011;8505;49.456;8.164;2023-07-16T07:03:28;7.40;;;2.63;;
16775;SDS011;8505;49.456;8.164;2023-07-16T07:05:55;6.55;;;2.40;;
16775;SDS011;8505;49.456;8.164;2023-07-16T07:08:23;7.93;;;2.75;;
16775;SDS011;8505;49.456;8.164;2023-07-16T07:10:51;6.85;;;2.55;;
16775;SDS011;8505;49.456;8.164;2023-07-16T07:13:19;8.13;;;2.95;;
16775;SDS011;8505;49.456;8.164;2023-07-16T07:15:48;7.50;;;2.17;;
16775;SDS011;8505;49.456;8.164;2023-07-16T07:18:16;7.35;;;2.53;;
16775;SDS011;8505;49.456;8.164;2023-07-16T07:20:43;7.45;;;2.53;;
16775;SDS011;8505;49.456;8.164;2023-07-16T07:23:11;9.30;;;2.70;;
16775;SDS011;8505;49.456;8.164;2023-07-16T07:25:39;7.60;;;2.70;;
16775;SDS011;8505;49.456;8.164;2023-07-16T07:28:07;10.38;;;2.75;;
16775;SDS011;8505;49.456;8.164;2023-07-16T07:30:35;8.32;;;2.80;;
16775;SDS011;8505;49.456;8.164;2023-07-16T07:33:05;7.07;;;2.53;;
16775;SDS011;8505;49.456;8.164;2023-07-16T07:35:32;9.23;;;2.47;;
16775;SDS011;8505;49.456;8.164;2023-07-16T07:38:00;6.57;;;2.73;;
16775;SDS011;8505;49.456;8.164;2023-07-16T07:40:28;7.82;;;2.47;;
16775;SDS011;8505;49.456;8.164;2023-07-16T07:42:56;9.13;;;2.80;;
16775;SDS011;8505;49.456;8.164;2023-07-16T07:45:23;9.85;;;2.85;;
16775;SDS011;8505;49.456;8.164;2023-07-16T07:47:51;9.15;;;2.60;;
16775;SDS011;8505;49.456;8.164;2023-07-16T07:50:20;9.02;;;2.80;;
16775;SDS011;8505;49.456;8.164;2023-07-16T07:52:48;9.32;;;2.60;;
16775;SDS011;8505;49.456;8.164;2023-07-16T07:55:16;6.60;;;2.58;;
16775;SDS011;8505;49.456;8.164;2023-07-16T07:57:44;9.32;;;2.53;;
16775;SDS011;8505;49.456;8.164;2023-07-16T08:00:12;10.80;;;2.50;;
16775;SDS011;8505;49.456;8.164;2023-07-16T08:02:40;8.70;;;2.50;;
16775;SDS011;8505;49.456;8.164;2023-07-16T08:05:08;8.30;;;2.67;;
16775;SDS011;8505;49.456;8.164;2023-07-16T08:07:37;7.57;;;2.40;;
16775;SDS011;8505;49.456;8.164;2023-07-16T08:10:05;8.65;;;2.75;;
16775;SDS011;8505;49.456;8.164;2023-07-16T08:12:33;6.95;;;2.60;;
16775;SDS011;8505;49.456;8.164;2023-07-16T08:15:01;7.18;;;2.47;;
16775;SDS011;8505;49.456;8.164;2023-07-16T08:17:29;7.55;;;2.78;;
16775;SDS011;8505;49.456;8.164;2023-07-16T08:19:57;8.15;;;2.40;;
16775;SDS011;8505;49.456;8.164;2023-07-16T08:22:25;8.25;;;2.58;;
16775;SDS011;8505;49.456;8.164;2023-07-16T08:24:54;7.38;;;2.40;;
16775;SDS011;8505;49.456;8.164;2023-07-16T08:27:22;7.00;;;2.70;;
16775;SDS011;8505;49.456;8.164;2023-07-16T08:29:50;7.38;;;2.50;;
16775;SDS011;8505;49.456;8.164;2023-07-16T08:32:18;8.05;;;2.83;;
16775;SDS011;8505;49.456;8.164;2023-07-16T08:34:46;7.10;;;2.30;;
16775;SDS011;8505;49.456;8.164;2023-07-16T08:37:14;10.07;;;2.70;;
16775;SDS011;8505;49.456;8.164;2023-07-16T08:39:41;9.23;;;3.20;;
16775;SDS011;8505;49.456;8.164;2023-07-16T08:42:11;8.37;;;2.53;;
16775;SDS011;8505;49.456;8.164;2023-07-16T08:44:39;7.30;;;2.53;;
16775;SDS011;8505;49.456;8.164;2023-07-16T08:47:07;8.48;;;2.58;;
16775;SDS011;8505;49.456;8.164;2023-07-16T08:49:36;5.40;;;2.20;;
16775;SDS011;8505;49.456;8.164;2023-07-16T08:52:05;7.72;;;2.50;;
16775;SDS011;8505;49.456;8.164;2023-07-16T08:54:35;7.23;;;2.27;;
16775;SDS011;8505;49.456;8.164;2023-07-16T08:57:02;6.40;;;2.08;;
16775;SDS011;8505;49.456;8.164;2023-07-16T08:59:32;8.32;;;2.30;;
16775;SDS011;8505;49.456;8.164;2023-07-16T09:02:00;7.00;;;2.20;;
16775;SDS011;8505;49.456;8.164;2023-07-16T09:04:28;5.97;;;2.10;;
16775;SDS011;8505;49.456;8.164;2023-07-16T09:06:57;6.00;;;2.22;;
16775;SDS011;8505;49.456;8.164;2023-07-16T09:09:24;6.63;;;2.30;;
16775;SDS011;8505;49.456;8.164;2023-07-16T09:11:52;5.90;;;2.20;;
16775;SDS011;8505;49.456;8.164;2023-07-16T09:14:21;6.70;;;2.00;;
16775;SDS011;8505;49.456;8.164;2023-07-16T09:16:50;6.53;;;2.33;;
16775;SDS011;8505;49.456;8.164;2023-07-16T09:19:19;8.23;;;2.60;;
16775;SDS011;8505;49.456;8.164;2023-07-16T09:21:48;6.50;;;2.42;;
16775;SDS011;8505;49.456;8.164;2023-07-16T09:24:17;6.97;;;2.17;;
16775;SDS011;8505;49.456;8.164;2023-07-16T09:26:47;6.93;;;2.08;;
16775;SDS011;8505;49.456;8.164;2023-07-16T09:29:16;6.03;;;1.90;;
16775;SDS011;8505;49.456;8.164;2023-07-16T09:31:55;6.18;;;2.15;;
16775;SDS011;8505;49.456;8.164;2023-07-16T09:34:26;5.22;;;2.05;;
16775;SDS011;8505;49.456;8.164;2023-07-16T09:36:55;4.30;;;1.90;;
16775;SDS011;8505;49.456;8.164;2023-07-16T09:39:23;5.53;;;2.10;;
16775;SDS011;8505;49.456;8.164;2023-07-16T09:41:52;6.78;;;2.25;;
16775;SDS011;8505;49.456;8.164;2023-07-16T09:44:22;5.95;;;2.15;;
16775;SDS011;8505;49.456;8.164;2023-07-16T09:46:50;5.55;;;2.10;;
16775;SDS011;8505;49.456;8.164;2023-07-16T09:49:19;6.18;;;2.30;;
16775;SDS011;8505;49.456;8.164;2023-07-16T09:51:47;5.57;;;2.40;;
16775;SDS011;8505;49.456;8.164;2023-07-16T09:54:17;6.50;;;2.37;;
16775;SDS011;8505;49.456;8.164;2023-07-16T09:56:47;6.82;;;2.00;;
16775;SDS011;8505;49.456;8.164;2023-07-16T09:59:18;5.68;;;2.60;;
16775;SDS011;8505;49.456;8.164;2023-07-16T10:01:50;6.65;;;2.13;;
16775;SDS011;8505;49.456;8.164;2023-07-16T10:04:19;6.38;;;1.95;;
16775;SDS011;8505;49.456;8.164;2023-07-16T10:06:52;4.57;;;2.05;;
16775;SDS011;8505;49.456;8.164;2023-07-16T10:09:36;5.38;;;2.03;;
16775;SDS011;8505;49.456;8.164;2023-07-16T10:12:13;5.72;;;2.03;;
16775;SDS011;8505;49.456;8.164;2023-07-16T10:14:43;6.28;;;2.30;;
16775;SDS011;8505;49.456;8.164;2023-07-16T10:17:12;5.38;;;2.28;;
16775;SDS011;8505;49.456;8.164;2023-07-16T10:20:02;5.60;;;2.10;;
16775;SDS011;8505;49.456;8.164;2023-07-16T10:22:34;5.72;;;2.00;;
16775;SDS011;8505;49.456;8.164;2023-07-16T10:25:07;5.15;;;2.10;;
16775;SDS011;8505;49.456;8.164;2023-07-16T10:27:36;5.40;;;2.00;;
16775;SDS011;8505;49.456;8.164;2023-07-16T10:30:05;5.72;;;2.17;;
16775;SDS011;8505;49.456;8.164;2023-07-16T10:32:33;7.10;;;2.17;;
16775;SDS011;8505;49.456;8.164;2023-07-16T10:35:03;5.53;;;2.20;;
16775;SDS011;8505;49.456;8.164;2023-07-16T10:37:32;6.28;;;2.03;;
16775;SDS011;8505;49.456;8.164;2023-07-16T10:40:00;4.75;;;2.33;;
16775;SDS011;8505;49.456;8.164;2023-07-16T10:42:29;5.45;;;2.08;;
16775;SDS011;8505;49.456;8.164;2023-07-16T10:44:58;4.10;;;1.80;;
16775;SDS011;8505;49.456;8.164;2023-07-16T10:47:29;5.28;;;2.35;;
16775;SDS011;8505;49.456;8.164;2023-07-16T10:49:58;4.37;;;2.03;;
16775;SDS011;8505;49.456;8.164;2023-07-16T10:52:28;5.72;;;2.55;;
16775;SDS011;8505;49.456;8.164;2023-07-16T10:54:56;4.70;;;1.90;;
16775;SDS011;8505;49.456;8.164;2023-07-16T10:57:25;4.82;;;2.13;;
16775;SDS011;8505;49.456;8.164;2023-07-16T10:59:53;5.10;;;1.90;;
16775;SDS011;8505;49.456;8.164;2023-07-16T11:02:22;5.20;;;2.08;;
16775;SDS011;8505;49.456;8.164;2023-07-16T11:04:51;5.53;;;1.90;;
16775;SDS011;8505;49.456;8.164;2023-07-16T11:07:20;5.13;;;2.00;;
16775;SDS011;8505;49.456;8.164;2023-07-16T11:09:50;5.25;;;1.90;;
16775;SDS011;8505;49.456;8.164;2023-07-16T11:12:20;3.30;;;1.80;;
16775;SDS011;8505;49.456;8.164;2023-07-16T11:14:49;4.80;;;2.15;;
16775;SDS011;8505;49.456;8.164;2023-07-16T11:17:18;4.77;;;1.90;;
16775;SDS011;8505;49.456;8.164;2023-07-16T11:19:48;4.13;;;2.15;;
16775;SDS011;8505;49.456;8.164;2023-07-16T11:22:17;4.78;;;2.00;;
16775;SDS011;8505;49.456;8.164;2023-07-16T11:24:46;5.30;;;1.98;;
16775;SDS011;8505;49.456;8.164;2023-07-16T11:27:16;4.72;;;1.95;;
16775;SDS011;8505;49.456;8.164;2023-07-16T11:29:45;5.43;;;2.00;;
16775;SDS011;8505;49.456;8.164;2023-07-16T11:32:14;5.70;;;2.08;;
16775;SDS011;8505;49.456;8.164;2023-07-16T11:34:54;5.63;;;2.00;;
16775;SDS011;8505;49.456;8.164;2023-07-16T11:37:24;4.63;;;2.20;;
16775;SDS011;8505;49.456;8.164;2023-07-16T11:39:55;4.90;;;1.90;;
16775;SDS011;8505;49.456;8.164;2023-07-16T11:42:27;4.23;;;2.03;;
16775;SDS011;8505;49.456;8.164;2023-07-16T11:44:56;5.88;;;1.95;;
16775;SDS011;8505;49.456;8.164;2023-07-16T11:47:23;5.33;;;2.20;;
16775;SDS011;8505;49.456;8.164;2023-07-16T11:49:52;4.13;;;2.10;;
16775;SDS011;8505;49.456;8.164;2023-07-16T11:52:20;4.00;;;1.83;;
16775;SDS011;8505;49.456;8.164;2023-07-16T11:54:50;4.50;;;2.10;;
16775;SDS011;8505;49.456;8.164;2023-07-16T11:57:18;5.05;;;2.05;;
16775;SDS011;8505;49.456;8.164;2023-07-16T11:59:48;5.40;;;2.10;;
16775;SDS011;8505;49.456;8.164;2023-07-16T12:02:15;4.00;;;1.98;;
16775;SDS011;8505;49.456;8.164;2023-07-16T12:04:43;4.33;;;2.10;;
16775;SDS011;8505;49.456;8.164;2023-07-16T12:07:11;5.07;;;2.05;;
16775;SDS011;8505;49.456;8.164;2023-07-16T12:09:39;4.72;;;2.20;;
16775;SDS011;8505;49.456;8.164;2023-07-16T12:12:06;6.22;;;2.47;;
16775;SDS011;8505;49.456;8.164;2023-07-16T12:14:34;5.95;;;2.58;;
16775;SDS011;8505;49.456;8.164;2023-07-16T12:17:04;6.72;;;2.40;;
16775;SDS011;8505;49.456;8.164;2023-07-16T12:19:33;4.32;;;2.20;;
16775;SDS011;8505;49.456;8.164;2023-07-16T12:22:01;4.72;;;2.20;;
16775;SDS011;8505;49.456;8.164;2023-07-16T12:24:29;4.30;;;2.20;;
16775;SDS011;8505;49.456;8.164;2023-07-16T12:26:57;5.65;;;2.30;;
16775;SDS011;8505;49.456;8.164;2023-07-16T12:29:24;4.95;;;2.30;;
16775;SDS011;8505;49.456;8.164;2023-07-16T12:31:52;8.73;;;1.98;;
16775;SDS011;8505;49.456;8.164;2023-07-16T12:34:22;4.78;;;2.20;;
16775;SDS011;8505;49.456;8.164;2023-07-16T12:36:50;5.13;;;2.33;;
16775;SDS011;8505;49.456;8.164;2023-07-16T12:39:17;6.90;;;2.43;;
16775;SDS011;8505;49.456;8.164;2023-07-16T12:41:45;5.20;;;2.20;;
16775;SDS011;8505;49.456;8.164;2023-07-16T12:44:13;6.43;;;2.40;;
16775;SDS011;8505;49.456;8.164;2023-07-16T12:46:41;6.65;;;2.33;;
16775;SDS011;8505;49.456;8.164;2023-07-16T12:49:09;6.40;;;2.43;;
16775;SDS011;8505;49.456;8.164;2023-07-16T12:51:38;4.90;;;2.30;;
16775;SDS011;8505;49.456;8.164;2023-07-16T12:54:05;6.37;;;2.60;;
16775;SDS011;8505;49.456;8.164;2023-07-16T12:56:33;4.90;;;2.40;;
16775;SDS011;8505;49.456;8.164;2023-07-16T12:59:01;4.57;;;2.20;;
16775;SDS011;8505;49.456;8.164;2023-07-16T13:01:29;7.03;;;2.50;;
16775;SDS011;8505;49.456;8.164;2023-07-16T13:03:57;4.70;;;2.30;;
16775;SDS011;8505;49.456;8.164;2023-07-16T13:06:26;6.22;;;2.45;;
16775;SDS011;8505;49.456;8.164;2023-07-16T13:08:55;5.10;;;2.33;;
16775;SDS011;8505;49.456;8.164;2023-07-16T13:11:23;6.38;;;2.38;;
16775;SDS011;8505;49.456;8.164;2023-07-16T13:13:51;4.88;;;2.13;;
16775;SDS011;8505;49.456;8.164;2023-07-16T13:16:19;7.60;;;2.25;;
16775;SDS011;8505;49.456;8.164;2023-07-16T13:18:46;6.27;;;2.40;;
16775;SDS011;8505;49.456;8.164;2023-07-16T13:21:14;6.70;;;2.50;;
16775;SDS011;8505;49.456;8.164;2023-07-16T13:23:42;5.85;;;2.50;;
16775;SDS011;8505;49.456;8.164;2023-07-16T13:26:11;6.55;;;2.50;;
16775;SDS011;8505;49.456;8.164;2023-07-16T13:28:39;6.03;;;2.47;;
16775;SDS011;8505;49.456;8.164;2023-07-16T13:31:07;4.53;;;2.30;;
16775;SDS011;8505;49.456;8.164;2023-07-16T13:33:35;6.93;;;2.70;;
16775;SDS011;8505;49.456;8.164;2023-07-16T13:36:05;5.05;;;2.72;;
16775;SDS011;8505;49.456;8.164;2023-07-16T13:38:33;9.05;;;2.80;;
16775;SDS011;8505;49.456;8.164;2023-07-16T13:41:00;8.18;;;2.70;;
16775;SDS011;8505;49.456;8.164;2023-07-16T13:43:29;6.88;;;2.58;;
16775;SDS011;8505;49.456;8.164;2023-07-16T13:45:57;6.22;;;2.65;;
16775;SDS011;8505;49.456;8.164;2023-07-16T13:48:25;5.63;;;2.80;;
16775;SDS011;8505;49.456;8.164;2023-07-16T13:50:52;6.20;;;2.58;;
16775;SDS011;8505;49.456;8.164;2023-07-16T13:53:20;5.68;;;2.60;;
16775;SDS011;8505;49.456;8.164;2023-07-16T13:55:48;4.95;;;2.83;;
16775;SDS011;8505;49.456;8.164;2023-07-16T13:58:16;6.70;;;2.60;;
16775;SDS011;8505;49.456;8.164;2023-07-16T14:00:45;6.15;;;2.65;;
16775;SDS011;8505;49.456;8.164;2023-07-16T14:03:13;5.35;;;2.80;;
16775;SDS011;8505;49.456;8.164;2023-07-16T14:05:40;5.03;;;2.40;;
16775;SDS011;8505;49.456;8.164;2023-07-16T14:08:08;5.97;;;2.50;;
16775;SDS011;8505;49.456;8.164;2023-07-16T14:10:36;7.43;;;2.90;;
16775;SDS011;8505;49.456;8.164;2023-07-16T14:13:04;5.53;;;2.58;;
16775;SDS011;8505;49.456;8.164;2023-07-16T14:15:31;7.32;;;2.70;;
16775;SDS011;8505;49.456;8.164;2023-07-16T14:18:00;6.72;;;2.83;;
16775;SDS011;8505;49.456;8.164;2023-07-16T14:20:29;5.57;;;2.60;;
16775;SDS011;8505;49.456;8.164;2023-07-16T14:22:57;4.95;;;2.60;;
16775;SDS011;8505;49.456;8.164;2023-07-16T14:25:25;4.70;;;2.50;;
16775;SDS011;8505;49.456;8.164;2023-07-16T14:27:52;5.57;;;2.67;;
16775;SDS011;8505;49.456;8.164;2023-07-16T14:30:20;5.65;;;2.42;;
16775;SDS011;8505;49.456;8.164;2023-07-16T14:32:48;7.45;;;2.80;;
16775;SDS011;8505;49.456;8.164;2023-07-16T14:35:17;5.70;;;2.40;;
16775;SDS011;8505;49.456;8.164;2023-07-16T14:38:02;6.55;;;2.70;;
16775;SDS011;8505;49.456;8.164;2023-07-16T14:40:29;6.50;;;2.90;;
16775;SDS011;8505;49.456;8.164;2023-07-16T14:42:57;6.20;;;2.80;;
16775;SDS011;8505;49.456;8.164;2023-07-16T14:45:25;5.80;;;2.58;;
16775;SDS011;8505;49.456;8.164;2023-07-16T14:47:53;5.88;;;2.65;;
16775;SDS011;8505;49.456;8.164;2023-07-16T14:50:22;5.95;;;2.67;;
16775;SDS011;8505;49.456;8.164;2023-07-16T14:52:50;6.78;;;2.83;;
16775;SDS011;8505;49.456;8.164;2023-07-16T14:55:18;6.43;;;2.63;;
16775;SDS011;8505;49.456;8.164;2023-07-16T14:57:46;7.05;;;2.90;;
16775;SDS011;8505;49.456;8.164;2023-07-16T15:00:14;7.25;;;2.85;;
16775;SDS011;8505;49.456;8.164;2023-07-16T15:02:43;5.40;;;2.67;;
16775;SDS011;8505;49.456;8.164;2023-07-16T15:05:11;6.33;;;2.60;;
16775;SDS011;8505;49.456;8.164;2023-07-16T15:07:40;7.68;;;2.70;;
16775;SDS011;8505;49.456;8.164;2023-07-16T15:10:09;5.40;;;2.67;;
16775;SDS011;8505;49.456;8.164;2023-07-16T15:12:37;5.03;;;2.70;;